Tiempo atmosférico en la estación meteorológica de Murcia, Murcia (61 m.)



Fecha
DESCASC
Temp. máxima en grados centígrados (hora)
DESCASC
Temp. mínima en grados centígrados (hora)
DESCASC
Temp. media en grados centígrados
DESCASC
Racha de viento máxima en m/sg (hora)
DESCASC
Velocidad máxima media en intervalos de 10 minutos(hora)
DESCASC
Precipitaciones diarias en mm
DESCASC
Precipitaciones de 00:00 a 06:00 en mm
DESCASC
Precipitaciones de 06:00 a 12:00 en mm
DESCASC
Precipitaciones de 12:00 a 18:00 en mm
DESCASC
Precipitaciones de 18:00 a 24:00 en mm
DESCASC
17-10-2019 28.6 (16:40) 12.1 (08:20) 20.4 5.83 (16:10) 3.33 (14:00) 0 0 0 0 0
16-10-2019 26.7 (17:00) 11.5 (08:30) 19.1 5 (18:50) 2.78 (21:10) 0 0 0 0 0
15-10-2019 25 (17:30) 15.8 (08:00) 20.4 12.78 (01:30) 7.78 (01:30) 0 0 0 0 0
14-10-2019 28.2 (15:50) 18.3 (03:40) 23.3 7.22 (17:00) 4.72 (20:30) 0.2 0 0.2 0 0
13-10-2019 29.8 (15:30) 19 (00:00) 24.4 6.39 (16:50) 3.33 (17:00) 0 0 0 0 0
12-10-2019 27.2 (14:50) 19.4 (00:00) 23.3 7.22 (18:30) 4.17 (18:30) 0 0 0 0 0
11-10-2019 27.3 (15:50) 18.5 (00:00) 22.9 7.78 (15:10) 4.17 (16:20) 0 0 0 0 0
10-10-2019 27.3 (15:30) 19.2 (00:00) 23.3 7.22 (18:20) 4.17 (17:20) 0 0 0 0 0
09-10-2019 29.4 (17:00) 17.1 (00:00) 23.3 6.11 (18:30) 4.17 (18:10) 0 0 0 0 0
08-10-2019 28.1 (17:00) 20.2 (00:00) 24.2 5.83 (17:00) 3.06 (15:50) 0 0 0 0 0
07-10-2019 33.2 (15:40) 17.6 (00:00) 25.4 10.28 (15:50) 7.22 (16:10) 0 0 0 0 0
06-10-2019 31.3 (16:30) 16 (00:00) 23.6 7.5 (19:10) 5.28 (19:10) 0 0 0 0 0
05-10-2019 30.2 (15:30) 15.9 (08:00) 23.1 8.61 (18:20) 5.83 (17:10) 0 0 0 0 0
04-10-2019 31.5 (16:00) 15.4 (00:00) 23.4 8.33 (16:50) 3.89 (17:20) 0 0 0 0 0
03-10-2019 31.7 (17:20) 16.3 (00:00) 24 9.17 (14:20) 4.72 (14:10) 0 0 0 0 0
02-10-2019 31.2 (17:20) 20.8 (00:00) 26 10 (04:10) 6.39 (04:10) 0 0 0 0 0
01-10-2019 34.8 (17:10) 21.2 (00:00) 28 6.39 (15:40) 3.61 (18:30) 0 0 0 0 0
30-09-2019 31.8 (15:40) 18.8 (00:00) 25.3 8.89 (18:20) 5.56 (16:30) 0 0 0 0 0
29-09-2019 32.8 (16:50) 19.7 (00:00) 26.3 7.22 (19:10) 3.89 (19:10) 0 0 0 0 0
28-09-2019 29 (15:20) 19.5 (00:00) 24.3 8.33 (17:00) 5.56 (17:00) 0 0 0 0 0
27-09-2019 33.1 (16:20) 20 (00:00) 26.5 5 (17:10) 3.61 (21:20) 0 0 0 0 0
26-09-2019 29.7 (17:30) 19.9 (00:00) 24.8 6.11 (17:00) 3.61 (16:30) 0 0 0 0 0
25-09-2019 33.3 (16:50) 18.8 (00:00) 26 8.61 (20:20) 5.83 (20:30) 0 0 0 0 0
24-09-2019 34.2 (17:40) 18 (00:00) 26.1 6.39 (19:40) 3.89 (19:40) 0 0 0 0 0
23-09-2019 30 (16:10) 20.4 (00:00) 25.2 6.94 (12:30) 3.61 (12:40) 0 0 0 0 0
22-09-2019 32 (16:10) 21.5 (00:00) 26.8 6.94 (23:40) 4.17 (23:40) 0 0 0 0 0
21-09-2019 28.5 (14:40) 22.1 (00:00) 25.3 5.56 (20:40) 3.61 (20:30) 0 0 0 0 0
20-09-2019 27.2 (14:40) 22 (00:00) 24.6 9.17 (15:00) 5.28 (15:10) 0 0 0 0 0

Gráficas

Temp. máximas Temp. mínimas Temp. medias Precipitaciones Rachas de viento máximas Velocidades máximas media en intervalos de 10 minutos

Datos horarios

Fecha y hora oficial Temperatura (ºC) Velocidad del viento (km/h) Dirección del viento Racha (km/h) Dirección de racha Precipitación (mm) Presión (hPa) Tendencia (hPa) Humedad (%)
2019-10-19 23:00:00 19.6 4 Nordeste 9 Nordeste 0 1000 0.2 81
2019-10-19 22:00:00 20.3 4 Nordeste 8 Nordeste 0 999.9 0 79
2019-10-19 21:00:00 21.4 3 Este 10 Sudeste 0 999.9 -0.1 74
2019-10-19 20:00:00 22.1 6 Este 16 Sur 0 999.8 -0.5 72
2019-10-19 19:00:00 23.9 5 Sudeste 19 Sur 0 999.9 -0.8 63
2019-10-19 18:00:00 26 12 Sur 21 Sudeste 0 1000 -1.2 53
2019-10-19 17:00:00 28.1 8 Sur 19 Sudeste 0 1000.3 -2.2 43
2019-10-19 16:00:00 27.9 12 Sudeste 24 Sur 0 1000.7 -3.1 46
2019-10-19 15:00:00 29 10 Sur 20 Sudeste 0 1001.2 -3.6 37
2019-10-19 14:00:00 27.6 6 Este 11 Sudeste 0 1002.5 -2.8 38
2019-10-19 13:00:00 25.3 4 Este 7 Nordeste 0 1003.8 -1.5 47
2019-10-19 12:00:00 23.4 4 Sudeste 8 Sudeste 0 1004.8 0 48
2019-10-19 11:00:00 20.5 5 Norte 9 Sur 0 1005.3 0.5 56
2019-10-19 10:00:00 16.8 6 Sur 10 Noroeste 0 1005.3 0.5 69
2019-10-19 09:00:00 15 3 Sur 11 Oeste 0 1004.8 0 74
2019-10-19 08:00:00 13.1 4 Sudoeste 7 Sudoeste 0 1004.8 -0.2 82
2019-10-19 07:00:00 13.2 3 Sur 11 Noroeste 0 1004.8 -0.6 80
2019-10-19 06:00:00 14 4 Noroeste 9 Noroeste 0 1004.8 -1.4 77
2019-10-19 05:00:00 14.4 4 Oeste 8 Oeste 0 1005 -1.4 76
2019-10-19 04:00:00 16 6 Oeste 10 Oeste 0 1005.4 -1.1 70
2019-10-19 03:00:00 16.1 5 Oeste 9 Oeste 0 1006.2 -0.6 73
2019-10-19 02:00:00 16 4 Sur 6 Sur 0 1006.4 -0.6 74
2019-10-19 01:00:00 16.2 3 Noroeste 5 Sudoeste 0 1006.5 -0.5 70
2019-10-19 00:00:00 17.4 4 Sur 6 Sur 0 1006.8 -0.3 70
2019-10-18 23:00:00 18.7 3 Noroeste 6 Oeste 0 1007 -0.1 62
2019-10-18 22:00:00 20.2 4 Oeste 5 Oeste 0 1007 0 57
2019-10-18 21:00:00 21.6 2 Noroeste 5 Oeste 0 1007.1 0 53
2019-10-18 20:00:00 23.8 3 Sudoeste 10 Sudeste 0 1007.1 -0.2 45
2019-10-18 19:00:00 25.2 5 Sudeste 19 Sur 0 1007 -0.7 36
2019-10-18 18:00:00 27.4 9 Sudeste 22 Este 0 1007.1 -1.2 32
2019-10-18 17:00:00 28.9 8 Sudeste 17 Sudeste 0 1007.3 -2.2 31
2019-10-18 16:00:00 28.7 5 Este 12 Este 0 1007.7 -2.7 26
2019-10-18 15:00:00 28.6 5 Sudeste 9 Sudeste 0 1008.3 -2.5 26
2019-10-18 14:00:00 27.5 3 Sudeste 9 Sur 0 1009.5 -1.7 31
2019-10-18 13:00:00 25.1 5 Sur 9 Sur 0 1010.4 -0.5 36
2019-10-18 12:00:00 21.7 4 Sudoeste 10 Sur 0 1010.8 0.4 43
2019-10-18 11:00:00 19.9 6 Sudoeste 17 Noroeste 0 1011.2 1.1 45
2019-10-18 10:00:00 16.6 4 Sur 8 Noroeste 0 1010.9 0.8 64
2019-10-18 09:00:00 15.4 4 Sudoeste 9 Noroeste 0 1010.4 0.2 61
2019-10-18 08:00:00 13.6 4 Sudoeste 6 Sur 0 1010.1 -0.1 70
2019-10-18 07:00:00 13.8 3 Oeste 7 Noroeste 0 1010.1 -0.4 65
2019-10-18 06:00:00 14 0 Calma 6 Sudoeste 0 1010.2 -0.8 68
2019-10-18 05:00:00 15.8 4 Oeste 9 Noroeste 0 1010.2 -0.8 61
2019-10-18 04:00:00 15.9 7 Sudoeste 10 Sudoeste 0 1010.5 -0.6 60
2019-10-18 03:00:00 15.6 5 Sur 9 Sudoeste 0 1011 -0.1 62
2019-10-18 02:00:00 16.5 6 Sur 10 Oeste 0 1011 0 65
2019-10-18 01:00:00 16.4 2 Sur 9 Sudoeste 0 1011.1 0.7 59
2019-10-18 00:00:00 17.9 5 Sudoeste 8 Sudoeste 0 1011.1 1.3 65
2019-10-17 23:00:00 19.1 5 Sudoeste 9 Sudoeste 0 1011 1.8 61
2019-10-17 22:00:00 20.4 5 Sur 10 Sur 0 1010.4 1.7 54
2019-10-17 21:00:00 22.3 5 Oeste 17 Oeste 0 1009.8 1.1 44
2019-10-17 20:00:00 23.4 8 Sudoeste 14 Sudoeste 0 1009.2 0.4 42
2019-10-17 19:00:00 26 3 Sudoeste 8 Sur 0 1008.7 -0.6 25
2019-10-17 18:00:00 27.5 5 Sur 15 Sur 0 1008.7 -1.2 22
2019-10-17 17:00:00 28.6 6 Sudoeste 21 Sudoeste 0 1008.8 -2 19
2019-10-17 16:00:00 28.1 6 Sur 16 Oeste 0 1009.3 -2.3 22
2019-10-17 15:00:00 27.2 6 Noroeste 17 Noroeste 0 1009.9 -2.2 20
2019-10-17 14:00:00 25.8 12 Oeste 20 Sudoeste 0 1010.8 -1.1 24
2019-10-17 13:00:00 24.1 11 Oeste 21 Oeste 0 1011.6 -0.1 31
2019-10-17 12:00:00 21.8 6 Sudoeste 16 Oeste 0 1012.1 1 40
2019-10-17 11:00:00 19.1 5 Sur 9 Sur 0 1011.9 1.3 50
2019-10-17 10:00:00 15.9 5 Sur 9 Oeste 0 1011.7 1.3 65
2019-10-17 09:00:00 13.3 5 Oeste 9 Sudoeste 0 1011.1 0.4 72
2019-10-17 08:00:00 12.3 5 Sudoeste 9 Sur 0 1010.6 -0.2 78
2019-10-17 07:00:00 13 5 Oeste 10 Oeste 0 1010.4 -0.6 72
2019-10-17 06:00:00 13.4 6 Oeste 13 Oeste 0 1010.7 -0.1 75
2019-10-17 05:00:00 13.3 4 Sur 9 Noroeste 0 1010.8 -0.3 78
2019-10-17 04:00:00 13.8 5 Noroeste 8 Noroeste 0 1011 -0.3 76
2019-10-17 03:00:00 14.2 4 Sudoeste 8 Noroeste 0 1010.8 -0.7 76
2019-10-17 02:00:00 15.2 5 Oeste 9 Oeste 0 1011.1 0 74
2019-10-17 01:00:00 16.1 5 Oeste 9 Oeste 0 1011.3 0.8 73
2019-10-17 00:00:00 17 4 Sudoeste 9 Sudoeste 0 1011.5 1.4 70
2019-10-16 23:00:00 17.4 4 Sur 7 Oeste 0 1011.1 1.3 69
2019-10-16 22:00:00 19.4 6 Sudoeste 17 Sudoeste 0 1010.5 0.9 61
2019-10-16 21:00:00 20.3 9 Oeste 18 Sudoeste 0 1010.1 0.4 57
2019-10-16 20:00:00 21.6 9 Sudoeste 13 Sur 0 1009.8 -0.4 52
2019-10-16 19:00:00 23.5 8 Sudeste 18 Sudeste 0 1009.6 -1.3 47
2019-10-16 18:00:00 25.3 5 Nordeste 10 Sudeste 0 1009.7 -2 29
2019-10-16 17:00:00 26.6 4 Sur 11 Sudeste 0 1010.2 -2.4 26
2019-10-16 16:00:00 25.6 5 Este 12 Sudoeste 0 1010.9 -2.6 30
2019-10-16 15:00:00 24.9 5 Sudoeste 12 Sudoeste 0 1011.7 -2.5 30
2019-10-16 14:00:00 23.6 4 Oeste 13 Sudoeste 0 1012.6 -1.8 32
2019-10-16 13:00:00 22 4 Oeste 12 Oeste 0 1013.5 -0.7 36
2019-10-16 12:00:00 19.7 6 Oeste 14 Oeste 0 1014.2 0.4 42
2019-10-16 11:00:00 17.2 6 Oeste 15 Oeste 0 1014.4 0.9 48
2019-10-16 10:00:00 14.9 3 Sur 7 Sur 0 1014.2 0.6 58
2019-10-16 09:00:00 12.4 5 Sur 8 Oeste 0 1013.8 0.2 67
2019-10-16 08:00:00 11.8 5 Oeste 11 Oeste 0 1013.5 -0.1 66
2019-10-16 07:00:00 12.3 6 Oeste 10 Noroeste 0 1013.6 0 62
2019-10-16 06:00:00 12.5 7 Oeste 11 Oeste 0 1013.6 -0.4 64
2019-10-16 05:00:00 12 3 Oeste 8 Noroeste 0 1013.6 -0.1 68
2019-10-16 04:00:00 13.3 5 Oeste 10 Sudoeste 0 1013.6 -0.1 64
2019-10-16 03:00:00 13.8 3 Sudoeste 10 Oeste 0 1014 0.3 61
2019-10-16 02:00:00 14.7 3 Oeste 9 Oeste 0 1013.7 0 62
2019-10-16 01:00:00 16 6 Oeste 10 Oeste 0 1013.7 0.4 59
2019-10-16 00:00:00 17.4 6 Oeste 13 Oeste 0 1013.7 0.8 55
2019-10-15 23:00:00 16.8 6 Oeste 9 Oeste 0 1013.7 1.5 60
2019-10-15 22:00:00 19 6 Oeste 13 Oeste 0 1013.3 1.7 50
2019-10-15 21:00:00 19.5 6 Sudoeste 14 Sudoeste 0 1012.9 1.4 47
2019-10-15 20:00:00 21 6 Sur 12 Sudeste 0 1012.2 0.7 42
2019-10-15 19:00:00 23.5 0 Calma 6 Sudeste 0 1011.6 -0.3 32
2019-10-15 18:00:00 24.4 7 Sudoeste 12 Sudoeste 0 1011.5 -0.7 26
2019-10-15 17:00:00 24.4 6 Noroeste 19 Noroeste 0 1011.5 -1.6 27
2019-10-15 16:00:00 24 6 Norte 21 Noroeste 0 1011.9 -1.9 28
2019-10-15 15:00:00 23.2 8 Oeste 23 Norte 0 1012.2 -1.6 30
2019-10-15 14:00:00 22 13 Noroeste 24 Noroeste 0 1013.1 -0.7 33
2019-10-15 13:00:00 20.9 14 Noroeste 28 Noroeste 0 1013.8 0.7 35
2019-10-15 12:00:00 20.4 15 Noroeste 27 Oeste 0 1013.8 1.5 38
2019-10-15 11:00:00 18.8 20 Noroeste 32 Noroeste 0 1013.8 2.2 44
2019-10-15 10:00:00 17.9 15 Noroeste 29 Noroeste 0 1013.1 1.7 47
2019-10-15 09:00:00 16.5 13 Noroeste 26 Noroeste 0 1012.3 1.3 51
2019-10-15 08:00:00 15.8 8 Noroeste 20 Noroeste 0 1011.6 1.3 52
2019-10-15 07:00:00 16.7 12 Noroeste 19 Noroeste 0 1011.4 1.5 53
2019-10-15 06:00:00 17.6 14 Noroeste 31 Noroeste 0 1011 1.3 49
2019-10-15 05:00:00 17.9 12 Noroeste 28 Noroeste 0 1010.3 0.8 49
2019-10-15 04:00:00 18.8 11 Noroeste 28 Noroeste 0 1009.9 0.9 46
2019-10-15 03:00:00 19.1 18 Oeste 36 Oeste 0 1009.7 2 49
2019-10-15 02:00:00 19 15 Noroeste 46 Noroeste 0 1009.5 2.4 51
2019-10-15 01:00:00 19.8 19 Noroeste 38 Norte 0 1009 2.7 54
2019-10-15 00:00:00 22.3 10 Oeste 22 Noroeste 0 1007.7 2.2 40
2019-10-14 23:00:00 23.1 13 Oeste 23 Oeste 0 1007.1 2.5 41
2019-10-14 22:00:00 22.5 6 Oeste 9 Oeste 0 1006.3 2.2 61
2019-10-14 21:00:00 23 7 Nordeste 25 Norte 0 1005.5 1.8 72
2019-10-14 20:00:00 23.4 11 Nordeste 15 Nordeste 0 1004.6 0.6 78
2019-10-14 19:00:00 25.4 2 Sudoeste 10 Sudeste 0 1004.1 -0.4 67
2019-10-14 18:00:00 26.6 5 Este 22 Nordeste 0 1003.7 -1.3 61
2019-10-14 17:00:00 27.3 16 Nordeste 26 Nordeste 0 1004 -2 64
2019-10-14 16:00:00 27.8 12 Nordeste 17 Nordeste 0 1004.5 -1.8 63
2019-10-14 15:00:00 26.7 6 Este 14 Sudeste 0 1005 -1.7 64
2019-10-14 14:00:00 25.8 4 Sur 12 Este 0 1006 -1.5 65
2019-10-14 13:00:00 24.6 4 Sudeste 17 Sudeste 0 1006.3 -1.1 73
2019-10-14 12:00:00 23.9 5 Este 13 Nordeste 0.2 1006.7 0.6 75
2019-10-14 11:00:00 22.6 10 Noroeste 18 Oeste 0 1007.5 1.6 76
2019-10-14 10:00:00 21.4 11 Oeste 18 Oeste 0 1007.4 1 87
2019-10-14 09:00:00 20.5 4 Sudoeste 9 Sur 0 1006.1 -0.6 92
2019-10-14 08:00:00 20.8 4 Noroeste 9 Nordeste 0 1005.9 -0.7 92
2019-10-14 07:00:00 20.4 5 Norte 9 Nordeste 0 1006.4 -1 95
2019-10-14 06:00:00 20.1 0 Calma 6 Nordeste 0 1006.7 -1.7 96
2019-10-14 05:00:00 19.6 4 Nordeste 7 Nordeste 0 1006.6 -2.2 96
2019-10-14 04:00:00 18.6 3 Noroeste 4 Noroeste 0 1007.4 -1.6 96
2019-10-14 03:00:00 18.8 0 Calma 6 Sur 0 1008.4 -0.4 93
2019-10-14 02:00:00 19.9 3 Sur 5 Sudoeste 0 1008.8 -0.1 91
2019-10-14 01:00:00 20.8 4 Sur 8 Sur 0 1009 0.2 92
2019-10-14 00:00:00 21.2 5 Nordeste 12 Nordeste 0 1008.8 0.1 91
2019-10-13 23:00:00 21.6 8 Nordeste 14 Nordeste 0 1008.9 0.5 91
2019-10-13 22:00:00 22.2 11 Nordeste 18 Nordeste 0 1008.8 0.5 88
2019-10-13 21:00:00 22.9 11 Nordeste 18 Nordeste 0 1008.7 0.7 83
2019-10-13 20:00:00 24.1 10 Este 17 Este 0 1008.4 0.6 77
2019-10-13 19:00:00 25.9 9 Este 19 Sudeste 0 1008.3 0.6 70
2019-10-13 18:00:00 28.1 9 Sudeste 22 Este 0 1008 -0.3 59
2019-10-13 17:00:00 29.1 12 Sudeste 23 Este 0 1007.8 -1.3 53
2019-10-13 16:00:00 29.6 9 Este 18 Este 0 1007.7 -2.2 48
2019-10-13 15:00:00 29.4 6 Sudeste 20 Sur 0 1008.3 -2 48
2019-10-13 14:00:00 28.1 6 Nordeste 15 Este 0 1009.1 -1.2 55
2019-10-13 13:00:00 26.7 7 Este 13 Este 0 1009.9 0 60
2019-10-13 12:00:00 25.1 3 Oeste 10 Sudoeste 0 1010.3 0.7 68
2019-10-13 11:00:00 23.4 4 Oeste 10 Oeste 0 1010.3 1.1 76
2019-10-13 10:00:00 21.5 5 Oeste 10 Oeste 0 1009.9 1 83
2019-10-13 09:00:00 19.4 2 Sudoeste 8 Oeste 0 1009.6 0.9 90
2019-10-13 08:00:00 19.4 3 Oeste 6 Sur 0 1009.2 0.5 88
2019-10-13 07:00:00 19.5 3 Sudoeste 14 Noroeste 0 1008.9 -0.2 88
2019-10-13 06:00:00 20 8 Noroeste 12 Noroeste 0 1008.7 -1 87
2019-10-13 05:00:00 20.1 0 Calma 8 Noroeste 0 1008.7 -1.1 92
2019-10-13 04:00:00 20.9 3 Noroeste 6 Sudeste 0 1009.1 -0.8 90
2019-10-13 03:00:00 21.7 3 Este 6 Noroeste 0 1009.7 -0.4 89
2019-10-13 02:00:00 21.5 5 Norte 9 Norte 0 1009.8 0.1 89
2019-10-13 01:00:00 21.9 6 Nordeste 10 Nordeste 0 1009.9 0.5 87
2019-10-13 00:00:00 22.9 6 Nordeste 12 Nordeste 0 1010.1 0.9 86
2019-10-12 23:00:00 22.7 6 Norte 12 Este 0 1009.7 0.9 86
2019-10-12 22:00:00 22.8 7 Nordeste 11 Nordeste 0 1009.4 0.9 87
2019-10-12 21:00:00 22.8 5 Nordeste 12 Este 0 1009.2 0.7 85
2019-10-12 20:00:00 23.9 8 Este 20 Este 0 1008.8 -0.1 78
2019-10-12 19:00:00 25 10 Este 26 Nordeste 0 1008.5 -0.6 73
2019-10-12 18:00:00 26.6 11 Este 21 Este 0 1008.5 -1.3 66
2019-10-12 17:00:00 26.3 13 Nordeste 20 Este 0 1008.9 -1.8 64
2019-10-12 16:00:00 26.8 9 Este 17 Este 0 1009.1 -2.3 64
2019-10-12 15:00:00 26.8 6 Sudeste 12 Sudeste 0 1009.8 -1.8 62
2019-10-12 14:00:00 25.1 6 Sudoeste 11 Sur 0 1010.7 -1 67
2019-10-12 13:00:00 24.1 5 Sudoeste 13 Oeste 0 1011.4 0.1 70
2019-10-12 12:00:00 23.3 9 Oeste 15 Noroeste 0 1011.6 0.7 72
2019-10-12 11:00:00 21.7 6 Oeste 13 Oeste 0 1011.7 1.2 77
2019-10-12 10:00:00 20.7 6 Noroeste 12 Sudoeste 0 1011.3 0.7 81
2019-10-12 09:00:00 19.9 4 Sudoeste 12 Sudoeste 0 1010.9 0.4 84
2019-10-12 08:00:00 19.6 5 Norte 12 Sudoeste 0 1010.5 -0.1 86
2019-10-12 07:00:00 19.8 5 Oeste 12 Noroeste 0 1010.6 -0.5 85
2019-10-12 06:00:00 19.4 4 Oeste 18 Noroeste 0 1010.5 -0.8 86
2019-10-12 05:00:00 19.7 12 Noroeste 17 Noroeste 0 1010.6 -1.2 84
2019-10-12 04:00:00 20 9 Noroeste 14 Noroeste 0 1011.1 -1.4 86
2019-10-12 03:00:00 20.2 7 Noroeste 10 Noroeste 0 1011.3 -1.2 87
2019-10-12 02:00:00 20.5 8 Noroeste 12 Noroeste 0 1011.8 -0.8 87
2019-10-12 01:00:00 21.2 5 Noroeste 8 Noroeste 0 1012.5 0.2 85
2019-10-12 00:00:00 21 5 Norte 7 Norte 0 1012.5 0.7 86
2019-10-11 23:00:00 21 3 Norte 9 Norte 0 1012.6 1 84
2019-10-11 22:00:00 21.5 4 Nordeste 10 Este 0 1012.3 0.7 83
2019-10-11 21:00:00 22.1 8 Este 17 Nordeste 0 1011.8 0.3 80
2019-10-11 20:00:00 23.1 10 Este 20 Este 0 1011.6 0 74
2019-10-11 19:00:00 23.9 10 Este 23 Nordeste 0 1011.6 -0.2 70
2019-10-11 18:00:00 25 12 Este 25 Este 0 1011.5 -0.9 64
2019-10-11 17:00:00 26.7 14 Este 26 Nordeste 0 1011.6 -1.8 58
2019-10-11 16:00:00 27.1 15 Este 28 Este 0 1011.8 -2.7 55
2019-10-11 15:00:00 27.2 13 Este 23 Nordeste 0 1012.4 -2.4 56
2019-10-11 14:00:00 26.6 13 Este 20 Este 0 1013.4 -1.8 59
2019-10-11 13:00:00 24.9 7 Este 23 Este 0 1014.5 -0.4 65
2019-10-11 12:00:00 25.3 6 Sudeste 11 Sudeste 0 1014.8 0.6 65
2019-10-11 11:00:00 23.3 3 Noroeste 10 Oeste 0 1015.2 1.4 72
2019-10-11 10:00:00 20.4 6 Oeste 9 Noroeste 0 1014.9 1.2 84
2019-10-11 09:00:00 19 5 Noroeste 9 Noroeste 0 1014.2 0.3 91
2019-10-11 08:00:00 18.6 2 Oeste 7 Noroeste 0 1013.8 -0.1 92
2019-10-11 07:00:00 18.8 4 Noroeste 6 Noroeste 0 1013.7 -0.4 92
2019-10-11 06:00:00 19.4 3 Noroeste 8 Noroeste 0 1013.9 -0.2 90
2019-10-11 05:00:00 19.6 3 Noroeste 6 Noroeste 0 1013.9 -0.5 90
2019-10-11 04:00:00 20 3 Noroeste 5 Noroeste 0 1014.1 -0.3 89
2019-10-11 03:00:00 19.9 0 Calma 4 Nordeste 0 1014.1 -0.5 88
2019-10-11 02:00:00 20.9 0 Calma 3 Norte 0 1014.4 -0.1 85
2019-10-11 01:00:00 20.8 3 Nordeste 5 Nordeste 0 1014.4 0.4 84
2019-10-11 00:00:00 21.6 2 Nordeste 6 Nordeste 0 1014.6 1.1 81
2019-10-10 23:00:00 22.2 4 Este 8 Este 0 1014.5 1.3 79
2019-10-10 22:00:00 21.9 5 Este 10 Este 0 1014 1.1 81
2019-10-10 21:00:00 22.2 8 Este 17 Este 0 1013.5 0.9 78
2019-10-10 20:00:00 23.1 11 Este 19 Nordeste 0 1013.2 0.9 70
2019-10-10 19:00:00 24.7 12 Este 26 Nordeste 0 1012.9 0.5 60
2019-10-10 18:00:00 25.2 13 Este 25 Este 0 1012.6 -0.3 63
2019-10-10 17:00:00 26.8 12 Este 24 Este 0 1012.3 -1.3 58
2019-10-10 16:00:00 27.2 15 Este 22 Este 0 1012.4 -1.8 57
2019-10-10 15:00:00 26.6 8 Este 17 Este 0 1012.9 -1.5 55
2019-10-10 14:00:00 25.8 11 Este 19 Sudeste 0 1013.6 -0.9 59
2019-10-10 13:00:00 25.3 9 Este 19 Este 0 1014.2 0 59
2019-10-10 12:00:00 25 9 Este 15 Este 0 1014.4 1.1 63
2019-10-10 11:00:00 23.7 8 Este 15 Nordeste 0 1014.5 1.8 73
2019-10-10 10:00:00 21.8 3 Oeste 10 Sur 0 1014.2 1.9 82
2019-10-10 09:00:00 19.9 2 Sudoeste 5 Oeste 0 1013.3 1.4 88
2019-10-10 08:00:00 19.7 3 Sur 7 Sudoeste 0 1012.7 0.8 88
2019-10-10 07:00:00 20.5 5 Sudoeste 8 Sudoeste 0 1012.3 0.4 85
2019-10-10 06:00:00 21 3 Noroeste 7 Oeste 0 1011.9 -0.2 83
2019-10-10 05:00:00 20.9 2 Oeste 5 Oeste 0 1011.9 -0.1 83
2019-10-10 04:00:00 20.7 5 Oeste 7 Oeste 0 1011.9 0.2 84
2019-10-10 03:00:00 20.6 0 Calma 5 Norte 0 1012.1 0.8 86
2019-10-10 02:00:00 19.9 2 Nordeste 10 Nordeste 0 1012 1 87
2019-10-10 01:00:00 20.1 6 Nordeste 12 Nordeste 0 1011.7 1.4 85
2019-10-10 00:00:00 20.7 6 Nordeste 14 Nordeste 0 1011.3 1.7 83
2019-10-09 23:00:00 21.1 9 Nordeste 14 Nordeste 0 1011 2.2 81
2019-10-09 22:00:00 21.8 10 Nordeste 16 Nordeste 0 1010.3 2.2 78
2019-10-09 21:00:00 22.6 12 Nordeste 18 Nordeste 0 1009.6 2 75
2019-10-09 20:00:00 24.3 9 Nordeste 16 Sudeste 0 1008.8 1.1 67
2019-10-09 19:00:00 26.7 8 Sudeste 22 Este 0 1008.1 0 60
2019-10-09 18:00:00 28.1 13 Nordeste 19 Nordeste 0 1007.6 -1.1 55
2019-10-09 17:00:00 29.2 6 Este 15 Este 0 1007.7 -1.6 48
2019-10-09 16:00:00 28.5 8 Nordeste 15 Este 0 1008.1 -2.1 51
2019-10-09 15:00:00 28.4 4 Sudeste 14 Sudeste 0 1008.7 -1.7 52
2019-10-09 14:00:00 27 6 Sudeste 15 Sudoeste 0 1009.3 -1.4 56
2019-10-09 13:00:00 25.8 5 Sur 10 Sudeste 0 1010.2 -0.5 58
2019-10-09 12:00:00 23.8 3 Sudeste 9 Sur 0 1010.4 0.4 66
2019-10-09 11:00:00 21.9 3 Sudoeste 8 Noroeste 0 1010.7 1.1 72
2019-10-09 10:00:00 19.9 6 Noroeste 11 Noroeste 0 1010.7 1 81
2019-10-09 09:00:00 17.9 4 Oeste 9 Noroeste 0 1010 0.2 89
2019-10-09 08:00:00 17.5 4 Sudoeste 6 Oeste 0 1009.6 -0.2 88
2019-10-09 07:00:00 17.4 5 Oeste 6 Oeste 0 1009.7 -0.3 89
2019-10-09 06:00:00 17.4 4 Oeste 6 Oeste 0 1009.8 -0.5 90
2019-10-09 05:00:00 17.4 0 Calma 5 Oeste 0 1009.8 -0.8 89
2019-10-09 04:00:00 17.7 4 Oeste 5 Oeste 0 1010 -0.8 88
2019-10-09 03:00:00 18.3 0 Calma 5 Oeste 0 1010.3 -0.8 85
2019-10-09 02:00:00 19 4 Oeste 7 Sudoeste 0 1010.6 -0.2 82
2019-10-09 01:00:00 20.1 5 Sur 7 Sur 0 1010.8 0 79
2019-10-09 00:00:00 20.2 5 Noroeste 7 Oeste 0 1011.1 0.4 78
2019-10-08 23:00:00 21.2 4 Oeste 9 Sudoeste 0 1010.8 0.2 73
2019-10-08 22:00:00 22 5 Oeste 9 Sur 0 1010.8 0.7 70
2019-10-08 21:00:00 22.8 5 Sudoeste 13 Sudoeste 0 1010.7 0.6 65
2019-10-08 20:00:00 23.8 5 Sudeste 17 Sudeste 0 1010.6 0.1 63
2019-10-08 19:00:00 25.8 7 Sudeste 18 Sur 0 1010.1 -0.8 57
2019-10-08 18:00:00 26.9 9 Sur 20 Sur 0 1010.1 -1.1 54
2019-10-08 17:00:00 28 9 Sur 21 Sudoeste 0 1010.5 -1.6 51
2019-10-08 16:00:00 26.8 10 Sur 21 Sur 0 1010.9 -1.9 56
2019-10-08 15:00:00 26.6 9 Sudeste 18 Sudeste 0 1011.2 -2.4 56
2019-10-08 14:00:00 28 8 Sudeste 18 Sudeste 0 1012.1 -1.5 50
2019-10-08 13:00:00 27.4 8 Sudeste 16 Sudeste 0 1012.8 -0.6 51
2019-10-08 12:00:00 25.6 3 Sur 13 Este 0 1013.6 0.7 61
2019-10-08 11:00:00 24.5 4 Este 10 Sudeste 0 1013.6 1.2 67
2019-10-08 10:00:00 21.9 3 Sur 8 Nordeste 0 1013.4 1.4 79
2019-10-08 09:00:00 20.6 3 Este 7 Este 0 1012.9 1.3 82
2019-10-08 08:00:00 20.6 5 Nordeste 6 Este 0 1012.4 0.9 82
2019-10-08 07:00:00 20.7 3 Nordeste 6 Nordeste 0 1012 0.6 82
2019-10-08 06:00:00 21.1 5 Este 6 Este 0 1011.6 0.1 79
2019-10-08 05:00:00 21.1 0 Calma 6 Norte 0 1011.5 0.3 79
2019-10-08 04:00:00 21 3 Norte 8 Nordeste 0 1011.4 -0.1 79
2019-10-08 03:00:00 21.5 5 Nordeste 10 Nordeste 0 1011.5 0 77
2019-10-08 02:00:00 21.5 8 Nordeste 11 Nordeste 0 1011.2 0 77
2019-10-08 01:00:00 21.2 6 Nordeste 11 Nordeste 0 1011.5 0.7 80
2019-10-08 00:00:00 21.7 7 Nordeste 13 Nordeste 0 1011.5 1.3 78
2019-10-07 23:00:00 22.5 8 Nordeste 17 Nordeste 0 1011.2 1.6 74
2019-10-07 22:00:00 22.9 11 Nordeste 21 Este 0 1010.8 1.7 73
2019-10-07 21:00:00 23 13 Nordeste 23 Este 0 1010.2 1.7 73
2019-10-07 20:00:00 23.8 10 Este 22 Este 0 1009.6 1.6 71
2019-10-07 19:00:00 25.1 14 Este 25 Este 0 1009.1 1.6 66
2019-10-07 18:00:00 26.1 11 Este 33 Este 0 1008.5 1.5 63
2019-10-07 17:00:00 27.2 23 Este 37 Nordeste 0 1008 0.4 61
2019-10-07 16:00:00 29.7 22 Nordeste 37 Nordeste 0 1007.5 -0.9 49
2019-10-07 15:00:00 32.7 19 Noroeste 31 Oeste 0 1007 -2.2 24
2019-10-07 14:00:00 31.5 22 Noroeste 36 Noroeste 0 1007.6 -1.9 24
2019-10-07 13:00:00 29.7 19 Noroeste 31 Oeste 0 1008.4 -0.8 28
2019-10-07 12:00:00 28.1 14 Noroeste 35 Oeste 0 1009.2 0.5 32
2019-10-07 11:00:00 26.2 11 Oeste 21 Sudoeste 0 1009.5 1.3 37
2019-10-07 10:00:00 23.3 9 Oeste 15 Oeste 0 1009.2 1.2 45
2019-10-07 09:00:00 19 2 Sur 17 Noroeste 0 1008.7 0.6 73
2019-10-07 08:00:00 18.9 11 Noroeste 21 Noroeste 0 1008.2 0 63
2019-10-07 07:00:00 18.3 7 Sur 10 Sudoeste 0 1008 -0.4 86
2019-10-07 06:00:00 19.1 5 Sudoeste 10 Oeste 0 1008.1 -1.2 85
2019-10-07 05:00:00 19.3 5 Oeste 7 Oeste 0 1008.2 -1.1 90
2019-10-07 04:00:00 19.8 5 Oeste 8 Sudoeste 0 1008.4 -1.4 90
2019-10-07 03:00:00 20.3 5 Oeste 8 Oeste 0 1009.3 -1.1 89
2019-10-07 02:00:00 20.8 3 Oeste 9 Oeste 0 1009.3 -1 88
2019-10-07 01:00:00 21.2 4 Sudoeste 9 Oeste 0 1009.8 -0.3 87
2019-10-07 00:00:00 21.4 5 Oeste 7 Oeste 0 1010.4 1 88
2019-10-06 23:00:00 21.9 2 Este 10 Nordeste 0 1010.3 1.4 87
2019-10-06 22:00:00 22.5 7 Nordeste 16 Nordeste 0 1010.1 1.2 85
2019-10-06 21:00:00 23.1 12 Nordeste 26 Nordeste 0 1009.4 0.9 82
2019-10-06 20:00:00 23.9 15 Nordeste 27 Nordeste 0 1008.9 0.1 78
2019-10-06 19:00:00 25.9 18 Nordeste 26 Nordeste 0 1008.9 0 71
2019-10-06 18:00:00 28 16 Nordeste 24 Este 0 1008.5 -0.9 62
2019-10-06 17:00:00 30.9 12 Este 18 Este 0 1008.8 -1.7 40
2019-10-06 16:00:00 31.1 5 Este 12 Este 0 1008.9 -2 33
2019-10-06 15:00:00 30.4 6 Sudeste 13 Nordeste 0 1009.4 -1.8 37
2019-10-06 14:00:00 28.8 7 Nordeste 14 Este 0 1010.5 -0.6 41
2019-10-06 13:00:00 27.2 4 Sur 12 Sudeste 0 1010.9 0.2 43
2019-10-06 12:00:00 25.5 6 Este 10 Este 0 1011.2 0.5 49
2019-10-06 11:00:00 23.5 3 Sudeste 8 Este 0 1011.1 1.3 64
2019-10-06 10:00:00 20.4 3 Sudeste 10 Sudoeste 0 1010.7 1.1 75
2019-10-06 09:00:00 17.9 4 Sudoeste 9 Norte 0 1010.7 1.5 84
2019-10-06 08:00:00 16.2 0 Calma 9 Sudoeste 0 1009.8 0.8 88
2019-10-06 07:00:00 16.9 3 Noroeste 7 Noroeste 0 1009.6 0.5 90
2019-10-06 06:00:00 17.4 2 Oeste 6 Oeste 0 1009.2 -0.2 88
2019-10-06 05:00:00 18.7 4 Sudoeste 7 Oeste 0 1009 -0.3 86
2019-10-06 04:00:00 19 4 Oeste 9 Oeste 0 1009.1 -0.4 85
2019-10-06 03:00:00 19.3 4 Sudoeste 9 Oeste 0 1009.4 -0.2 87
2019-10-06 02:00:00 20.1 4 Oeste 9 Oeste 0 1009.3 -0.2 86
2019-10-06 01:00:00 20.6 3 Oeste 7 Oeste 0 1009.5 0.4 88
2019-10-06 00:00:00 21 4 Noroeste 9 Nordeste 0 1009.6 1.1 87
2019-10-05 23:00:00 21.3 7 Nordeste 11 Nordeste 0 1009.5 1.4 83
2019-10-05 22:00:00 22 9 Nordeste 12 Nordeste 0 1009.1 1.6 76
2019-10-05 21:00:00 22.8 9 Nordeste 19 Este 0 1008.5 1.4 73
2019-10-05 20:00:00 23.8 12 Nordeste 24 Nordeste 0 1008.1 1.2 65
2019-10-05 19:00:00 25.5 18 Nordeste 31 Nordeste 0 1007.5 0.5 56
2019-10-05 18:00:00 27.3 19 Este 30 Nordeste 0 1007.1 -0.2 47
2019-10-05 17:00:00 29 19 Este 28 Nordeste 0 1006.9 -1.2 40
2019-10-05 16:00:00 30.1 14 Nordeste 25 Nordeste 0 1007 -1.5 36
2019-10-05 15:00:00 30 13 Nordeste 21 Nordeste 0 1007.3 -1.2 37
2019-10-05 14:00:00 29.3 10 Nordeste 18 Este 0 1008.1 -0.4 33
2019-10-05 13:00:00 29.1 4 Sudeste 9 Sudeste 0 1008.5 0.4 34
2019-10-05 12:00:00 26.8 6 Este 9 Este 0 1008.5 0.8 39
2019-10-05 11:00:00 24.5 4 Sudoeste 11 Noroeste 0 1008.5 1.1 43
2019-10-05 10:00:00 21.6 3 Oeste 10 Oeste 0 1008.1 0.9 50
2019-10-05 09:00:00 18 5 Oeste 9 Noroeste 0 1007.7 0.5 67
2019-10-05 08:00:00 15.9 4 Oeste 7 Oeste 0 1007.4 0 75
2019-10-05 07:00:00 17.4 4 Oeste 14 Noroeste 0 1007.2 -0.3 69
2019-10-05 06:00:00 17.3 4 Oeste 9 Noroeste 0 1007.2 -0.7 70
2019-10-05 05:00:00 17.4 4 Noroeste 9 Oeste 0 1007.4 0 71
2019-10-05 04:00:00 18.3 6 Sudoeste 10 Sudoeste 0 1007.5 -0.2 67
2019-10-05 03:00:00 18.3 3 Oeste 10 Noroeste 0 1007.9 -0.1 67
2019-10-05 02:00:00 18.8 6 Oeste 7 Oeste 0 1007.4 -0.5 67
2019-10-05 01:00:00 19.2 3 Sudoeste 6 Noroeste 0 1007.7 0 65
2019-10-05 00:00:00 19.9 2 Sur 6 Sudoeste 0 1008 0.6 61
2019-10-04 23:00:00 21.3 2 Sur 5 Sudeste 0 1007.9 0.7 54
2019-10-04 22:00:00 22.5 2 Noroeste 9 Oeste 0 1007.7 0.8 50
2019-10-04 21:00:00 23.6 4 Noroeste 6 Sudoeste 0 1007.4 0.4 43
2019-10-04 20:00:00 26.6 3 Sur 15 Sur 0 1007.2 0.1 33
2019-10-04 19:00:00 29.2 10 Sur 21 Sur 0 1006.9 -0.8 29
2019-10-04 18:00:00 30.4 12 Sur 23 Sudeste 0 1007 -1.5 28
2019-10-04 17:00:00 31.3 10 Sur 30 Este 0 1007.1 -2.4 32
2019-10-04 16:00:00 31.3 9 Este 18 Este 0 1007.7 -2.5 26
2019-10-04 15:00:00 30.4 5 Nordeste 14 Este 0 1008.5 -2 26
2019-10-04 14:00:00 29.9 7 Sudeste 13 Sudeste 0 1009.5 -1.2 30
2019-10-04 13:00:00 28.5 3 Sudeste 10 Nordeste 0 1010.2 -0.4 33
2019-10-04 12:00:00 26.4 2 Sur 8 Sudeste 0 1010.5 0.2 39
2019-10-04 11:00:00 24 3 Sudeste 8 Norte 0 1010.7 0.8 45
2019-10-04 10:00:00 20.9 6 Oeste 9 Oeste 0 1010.6 1 51
2019-10-04 09:00:00 17.6 4 Oeste 8 Noroeste 0 1010.3 0.9 62
2019-10-04 08:00:00 15.7 4 Noroeste 12 Sudoeste 0 1009.9 0.6 67
2019-10-04 07:00:00 15.9 4 Oeste 8 Noroeste 0 1009.6 0.3 67
2019-10-04 06:00:00 16 3 Sudoeste 10 Oeste 0 1009.4 -0.4 70
2019-10-04 05:00:00 16.7 3 Sudoeste 10 Sudoeste 0 1009.3 -0.2 70
2019-10-04 04:00:00 17.2 0 Calma 10 Sudoeste 0 1009.3 -0.7 72
2019-10-04 03:00:00 18.7 5 Oeste 15 Oeste 0 1009.8 -0.1 65
2019-10-04 02:00:00 18.2 4 Oeste 12 Sudeste 0 1009.5 -0.3 73
2019-10-04 01:00:00 19.5 5 Sudoeste 10 Oeste 0 1010 0.5 68
2019-10-04 00:00:00 20.5 6 Oeste 9 Oeste 0 1009.9 0.8 68
2019-10-03 23:00:00 21.3 3 Noroeste 12 Nordeste 0 1009.8 1.5 68
2019-10-03 22:00:00 22.3 4 Norte 12 Oeste 0 1009.5 1.9 60
2019-10-03 21:00:00 25 10 Oeste 17 Oeste 0 1009.1 1.7 44
2019-10-03 20:00:00 25.9 8 Oeste 21 Sudoeste 0 1008.3 0.4 41
2019-10-03 19:00:00 28.2 15 Sudoeste 26 Sudoeste 0 1007.6 -0.7 32
2019-10-03 18:00:00 31.1 10 Sur 15 Sur 0 1007.4 -1.4 25
2019-10-03 17:00:00 31.1 8 Oeste 19 Norte 0 1007.9 -1.7 24
2019-10-03 16:00:00 30.5 8 Oeste 24 Noroeste 0 1008.3 -1.9 25
2019-10-03 15:00:00 29.5 16 Noroeste 33 Noroeste 0 1008.8 -2.2 27
2019-10-03 14:00:00 28.5 15 Noroeste 30 Noroeste 0 1009.6 -1.5 28
2019-10-03 13:00:00 27.1 17 Noroeste 26 Noroeste 0 1010.2 -0.8 30
2019-10-03 12:00:00 25.1 9 Oeste 15 Oeste 0 1011 0.5 37
2019-10-03 11:00:00 23.4 8 Oeste 12 Oeste 0 1011.1 1 40
2019-10-03 10:00:00 20.6 5 Oeste 10 Noroeste 0 1011 1.2 47
2019-10-03 09:00:00 17.1 6 Noroeste 10 Oeste 0 1010.5 1 60
2019-10-03 08:00:00 16.5 4 Oeste 8 Oeste 0 1010.1 0.8 64
2019-10-03 07:00:00 16.6 6 Oeste 10 Sur 0 1009.8 0.3 64
2019-10-03 06:00:00 17.3 5 Noroeste 9 Noroeste 0 1009.5 0.1 58
2019-10-03 05:00:00 17.4 6 Noroeste 9 Sudoeste 0 1009.3 -0.2 70
2019-10-03 04:00:00 18 5 Oeste 8 Oeste 0 1009.5 -0.1 73
2019-10-03 03:00:00 18 6 Oeste 9 Oeste 0 1009.4 -0.4 72
2019-10-03 02:00:00 18.8 3 Sudoeste 10 Este 0 1009.5 0 79
2019-10-03 01:00:00 19.9 6 Oeste 14 Sur 0 1009.6 0.7 81
2019-10-03 00:00:00 20.8 4 Oeste 8 Nordeste 0 1009.8 1.7 80
2019-10-02 23:00:00 21.5 8 Nordeste 11 Nordeste 0 1009.5 2.3 77
2019-10-02 22:00:00 22.6 6 Nordeste 15 Nordeste 0 1008.9 2.4 73
2019-10-02 21:00:00 24 9 Nordeste 18 Nordeste 0 1008.1 2.1 59
2019-10-02 20:00:00 26.7 5 Noroeste 21 Noroeste 0 1007.2 1.4 28
2019-10-02 19:00:00 29.2 14 Norte 29 Norte 0 1006.5 0.2 23
2019-10-02 18:00:00 30.5 15 Norte 36 Noroeste 0 1006 -0.7 23
2019-10-02 17:00:00 31 7 Oeste 27 Norte 0 1005.8 -1.4 27
2019-10-02 16:00:00 30.3 10 Oeste 23 Noroeste 0 1006.3 -1.5 29
2019-10-02 15:00:00 29.8 11 Norte 29 Norte 0 1006.7 -1.3 32
2019-10-02 14:00:00 28.9 15 Noroeste 28 Norte 0 1007.2 -1 34
2019-10-02 13:00:00 28 14 Noroeste 29 Noroeste 0 1007.8 0.3 34
2019-10-02 12:00:00 26.9 17 Noroeste 31 Norte 0 1008 1.1 36
2019-10-02 11:00:00 26.1 8 Noroeste 17 Oeste 0 1008.2 1.7 40
2019-10-02 10:00:00 24.8 7 Noroeste 24 Noroeste 0 1007.5 1.5 44
2019-10-02 09:00:00 24.3 9 Norte 32 Oeste 0 1006.9 1.3 44
2019-10-02 08:00:00 23.2 6 Oeste 16 Oeste 0 1006.5 1.1 45
2019-10-02 07:00:00 22.5 6 Sur 19 Noroeste 0 1006 0.4 50
2019-10-02 06:00:00 22.6 5 Sur 18 Sur 0 1005.6 0 48
2019-10-02 05:00:00 25.3 17 Oeste 36 Noroeste 0 1005.4 0 39
2019-10-02 04:00:00 25.2 21 Oeste 35 Oeste 0 1005.6 0.4 40
2019-10-02 03:00:00 22.2 3 Oeste 22 Oeste 0 1005.6 0.8 50
2019-10-02 02:00:00 21 5 Oeste 10 Oeste 0 1005.4 0.7 51
2019-10-02 01:00:00 23.1 4 Sudeste 15 Noroeste 0 1005.2 1.2 45
2019-10-02 00:00:00 25 7 Noroeste 18 Noroeste 0 1004.8 1.7 38
2019-10-01 23:00:00 24.5 7 Noroeste 13 Noroeste 0 1004.7 2 40
2019-10-01 22:00:00 25.8 5 Sudoeste 14 Sudoeste 0 1004 1.7 52
2019-10-01 21:00:00 28.6 9 Oeste 14 Oeste 0 1003.1 1.3 29
2019-10-01 20:00:00 30.3 9 Oeste 14 Oeste 0 1002.7 0.8 25
2019-10-01 19:00:00 32.5 9 Oeste 21 Noroeste 0 1002.3 -0.2 24
2019-10-01 18:00:00 34.1 8 Noroeste 19 Sudoeste 0 1001.8 -1.4 20
2019-10-01 17:00:00 34.7 5 Sudoeste 17 Oeste 0 1001.9 -2.3 25
2019-10-01 16:00:00 34 6 Sudoeste 23 Sudoeste 0 1002.5 -2.6 27
2019-10-01 15:00:00 32.5 8 Sudoeste 17 Sudoeste 0 1003.2 -2.7 33
2019-10-01 14:00:00 31.1 7 Oeste 19 Oeste 0 1004.2 -2.3 36
2019-10-01 13:00:00 28.6 6 Sudoeste 14 Oeste 0 1005.1 -1.1 46
2019-10-01 12:00:00 25.5 7 Oeste 13 Oeste 0 1005.9 0.2 59
2019-10-01 11:00:00 22.8 8 Sudoeste 12 Sudoeste 0 1006.5 0.6 76
2019-10-01 10:00:00 21.9 6 Oeste 11 Oeste 0 1006.2 0.4 85
2019-10-01 09:00:00 21.4 4 Oeste 10 Oeste 0 1005.7 -0.4 87
2019-10-01 08:00:00 21.6 7 Oeste 12 Oeste 0 1005.9 -0.4 87
2019-10-01 07:00:00 22.1 6 Oeste 12 Noroeste 0 1005.8 -1 85
2019-10-01 06:00:00 22.4 5 Oeste 9 Oeste 0 1006.1 -1.5 86
2019-10-01 05:00:00 22.3 5 Noroeste 10 Noroeste 0 1006.3 -1.5 87
2019-10-01 04:00:00 22.4 5 Noroeste 12 Oeste 0 1006.8 -1.5 87
2019-10-01 03:00:00 22.3 5 Noroeste 9 Norte 0 1007.6 -0.8 89
2019-10-01 02:00:00 21.6 4 Este 10 Nordeste 0 1007.8 -0.9 92
2019-10-01 01:00:00 21.8 4 Nordeste 10 Nordeste 0 1008.3 0.1 92
2019-10-01 00:00:00 21.8 6 Norte 13 Nordeste 0 1008.4 0.6 92
2019-09-30 23:00:00 22.4 9 Nordeste 20 Nordeste 0 1008.7 1.1 91
2019-09-30 22:00:00 23 12 Nordeste 21 Este 0 1008.2 1 89
2019-09-30 21:00:00 23.9 13 Nordeste 22 Nordeste 0 1007.8 0.8 85
2019-09-30 20:00:00 25 14 Nordeste 25 Nordeste 0 1007.6 0.5 75
2019-09-30 19:00:00 27 18 Nordeste 32 Este 0 1007.2 -0.2 61
2019-09-30 18:00:00 28.5 17 Nordeste 30 Nordeste 0 1007 -0.8 60
2019-09-30 17:00:00 30 17 Este 28 Nordeste 0 1007.1 -1.5 58
2019-09-30 16:00:00 31.3 17 Nordeste 26 Nordeste 0 1007.4 -1.8 52
2019-09-30 15:00:00 31.5 10 Nordeste 19 Nordeste 0 1007.8 -1.9 40
2019-09-30 14:00:00 30.8 5 Este 12 Este 0 1008.6 -1.1 39
2019-09-30 13:00:00 28.9 2 Nordeste 8 Nordeste 0 1009.2 -0.4 48
2019-09-30 12:00:00 27.1 4 Este 8 Este 0 1009.7 0.5 53
2019-09-30 11:00:00 24.6 3 Sudoeste 8 Sudoeste 0 1009.7 0.7 61
2019-09-30 10:00:00 21.9 4 Sur 12 Noroeste 0 1009.6 0.7 75
2019-09-30 09:00:00 19.6 9 Noroeste 13 Noroeste 0 1009.2 0.3 81
2019-09-30 08:00:00 18.8 4 Oeste 8 Oeste 0 1009 0 87
2019-09-30 07:00:00 19.1 3 Oeste 10 Oeste 0 1008.9 -0.4 87
2019-09-30 06:00:00 19.9 4 Oeste 7 Oeste 0 1008.9 -0.8 87
2019-09-30 05:00:00 20.5 3 Oeste 10 Oeste 0 1009 -0.7 89
2019-09-30 04:00:00 21 5 Oeste 8 Sudoeste 0 1009.3 -0.4 92
2019-09-30 03:00:00 20.3 0 Calma 6 Oeste 0 1009.7 0 89
2019-09-30 02:00:00 21.2 4 Oeste 5 Oeste 0 1009.7 0.1 90
2019-09-30 01:00:00 22.1 3 Sudoeste 6 Sur 0 1009.7 0.3 86
2019-09-30 00:00:00 22.8 2 Sur 9 Nordeste 0 1009.7 0.8 84
2019-09-29 23:00:00 23.1 4 Oeste 7 Oeste 0 1009.6 1.3 82
2019-09-29 22:00:00 24.9 4 Oeste 8 Oeste 0 1009.4 1.3 75
2019-09-29 21:00:00 26.2 4 Sudeste 14 Sudoeste 0 1008.9 0.8 69
2019-09-29 20:00:00 27.7 10 Sudoeste 26 Oeste 0 1008.3 -0.1 63
2019-09-29 19:00:00 30.1 11 Sudoeste 17 Sudoeste 0 1008.1 -0.8 55
2019-09-29 18:00:00 32.2 8 Sudeste 15 Sur 0 1008.1 -1.6 47
2019-09-29 17:00:00 32.7 5 Sudeste 13 Sur 0 1008.4 -2.3 41
2019-09-29 16:00:00 32 6 Sudeste 13 Sur 0 1008.9 -2.4 45
2019-09-29 15:00:00 30.6 4 Oeste 12 Sur 0 1009.7 -2.1 52
2019-09-29 14:00:00 29 5 Este 10 Sudeste 0 1010.7 -1.2 57
2019-09-29 13:00:00 27.2 5 Sudoeste 10 Sudoeste 0 1011.3 -0.3 64
2019-09-29 12:00:00 25.5 4 Sudeste 13 Oeste 0 1011.8 0.4 68
2019-09-29 11:00:00 23.6 5 Sudoeste 13 Noroeste 0 1011.9 0.8 75
2019-09-29 10:00:00 22.4 4 Oeste 9 Sudoeste 0 1011.6 0.5 81
2019-09-29 09:00:00 20.4 4 Oeste 8 Oeste 0 1011.4 0.2 89
2019-09-29 08:00:00 20.1 3 Sur 12 Noroeste 0 1011.1 -0.3 91
2019-09-29 07:00:00 19.9 2 Noroeste 9 Oeste 0 1011.1 -0.6 91
2019-09-29 06:00:00 20.5 5 Oeste 10 Oeste 0 1011.2 -0.9 91
2019-09-29 05:00:00 20.1 4 Sudoeste 6 Sudoeste 0 1011.4 -0.8 89
2019-09-29 04:00:00 20 2 Sur 5 Oeste 0 1011.7 -0.6 91
2019-09-29 03:00:00 21.1 3 Sudoeste 8 Sudoeste 0 1012.1 -0.5 87
2019-09-29 02:00:00 21.6 4 Sudoeste 6 Sudoeste 0 1012.2 -0.1 87
2019-09-29 01:00:00 22.2 0 Calma 4 Norte 0 1012.3 0.2 87
2019-09-29 00:00:00 22 3 Norte 6 Este 0 1012.6 1 88
2019-09-28 23:00:00 22.5 4 Este 11 Este 0 1012.3 0.9 87
2019-09-28 22:00:00 23.2 7 Este 15 Este 0 1012.1 0.7 84
2019-09-28 21:00:00 23.9 10 Este 19 Este 0 1011.6 0.4 79
2019-09-28 20:00:00 24.7 10 Este 20 Este 0 1011.4 0.2 75
2019-09-28 19:00:00 25.8 16 Nordeste 25 Nordeste 0 1011.4 -0.2 67
2019-09-28 18:00:00 27.5 15 Este 28 Este 0 1011.2 -0.9 61
2019-09-28 17:00:00 27.8 20 Nordeste 30 Este 0 1011.2 -1.6 59
2019-09-28 16:00:00 28.4 15 Nordeste 28 Nordeste 0 1011.6 -1.7 57
2019-09-28 15:00:00 28.7 14 Este 26 Este 0 1012.1 -1.4 57
2019-09-28 14:00:00 28.5 13 Este 22 Nordeste 0 1012.8 -0.6 55
2019-09-28 13:00:00 27.4 13 Nordeste 22 Nordeste 0 1013.3 0.6 62
2019-09-28 12:00:00 26.7 9 Este 23 Nordeste 0 1013.5 1.7 59
2019-09-28 11:00:00 25.2 4 Este 9 Sudeste 0 1013.4 2.4 63
2019-09-28 10:00:00 22.3 6 Noroeste 9 Noroeste 0 1012.7 2.1 76
2019-09-28 09:00:00 20.3 6 Noroeste 9 Noroeste 0 1011.8 1.2 89
2019-09-28 08:00:00 19.7 6 Oeste 8 Oeste 0 1011 0.3 93
2019-09-28 07:00:00 20.1 4 Oeste 7 Oeste 0 1010.6 -0.3 93
2019-09-28 06:00:00 20.6 5 Sudoeste 8 Sudoeste 0 1010.6 -0.8 92
2019-09-28 05:00:00 21 5 Oeste 6 Oeste 0 1010.7 -0.7 92
2019-09-28 04:00:00 21.1 2 Oeste 5 Noroeste 0 1010.9 -0.7 93
2019-09-28 03:00:00 21.3 3 Noroeste 5 Noroeste 0 1011.4 -0.2 92
2019-09-28 02:00:00 21.7 4 Noroeste 7 Nordeste 0 1011.4 0.2 93
2019-09-28 01:00:00 22.1 4 Este 12 Nordeste 0 1011.6 1 91
2019-09-28 00:00:00 22.4 8 Nordeste 12 Nordeste 0 1011.6 1.8 90
2019-09-27 23:00:00 23.1 5 Nordeste 13 Nordeste 0 1011.2 2.1 85
2019-09-27 22:00:00 24.1 9 Nordeste 18 Nordeste 0 1010.6 1.9 81
2019-09-27 21:00:00 25.8 10 Nordeste 17 Nordeste 0 1009.8 1.4 74
2019-09-27 20:00:00 28.5 6 Sudoeste 12 Sur 0 1009.1 0.5 60
2019-09-27 19:00:00 30.6 8 Sudeste 15 Sur 0 1008.7 -0.1 48
2019-09-27 18:00:00 31.9 9 Sudeste 18 Este 0 1008.4 -1.2 43
2019-09-27 17:00:00 32.5 9 Este 17 Este 0 1008.6 -1.7 42
2019-09-27 16:00:00 33 4 Sudeste 13 Este 0 1008.8 -2.1 36
2019-09-27 15:00:00 32.1 5 Sudeste 12 Sudeste 0 1009.6 -2 38
2019-09-27 14:00:00 30 4 Sudoeste 11 Sur 0 1010.3 -1.7 54
2019-09-27 13:00:00 28.3 2 Este 10 Oeste 0 1010.9 -0.9 58
2019-09-27 12:00:00 26.2 5 Noroeste 11 Oeste 0 1011.6 0 65
2019-09-27 11:00:00 24 5 Noroeste 14 Noroeste 0 1012 0.6 75
2019-09-27 10:00:00 22 5 Oeste 8 Oeste 0 1011.8 0.6 85
2019-09-27 09:00:00 20.8 4 Noroeste 7 Sudoeste 0 1011.6 0.5 91
2019-09-27 08:00:00 20.7 5 Noroeste 10 Noroeste 0 1011.4 0.4 91
2019-09-27 07:00:00 21 4 Oeste 10 Noroeste 0 1011.2 0 91
2019-09-27 06:00:00 21 4 Noroeste 10 Oeste 0 1011.1 -0.6 92
2019-09-27 05:00:00 20.9 5 Oeste 8 Sudoeste 0 1011 -1 93
2019-09-27 04:00:00 20.3 3 Oeste 5 Sudoeste 0 1011.2 -1 94
2019-09-27 03:00:00 20.2 0 Calma 3 Norte 0 1011.7 -0.7 91
2019-09-27 02:00:00 21.4 2 Sudoeste 6 Sudoeste 0 1012 0 88
2019-09-27 01:00:00 21.7 3 Este 5 Nordeste 0 1012.2 0.5 91
2019-09-27 00:00:00 21.9 5 Nordeste 10 Nordeste 0 1012.4 1.3 90
2019-09-26 23:00:00 22.5 7 Nordeste 13 Este 0 1012 1.6 87
2019-09-26 22:00:00 23.1 8 Nordeste 13 Nordeste 0 1011.7 1.6 82
2019-09-26 21:00:00 24.3 9 Nordeste 18 Este 0 1011.1 1.2 76
2019-09-26 20:00:00 25.8 9 Este 16 Sudeste 0 1010.4 0.3 67
2019-09-26 19:00:00 28.1 8 Sudeste 18 Sudeste 0 1010.1 -0.5 57
2019-09-26 18:00:00 29.3 9 Sudeste 16 Sudeste 0 1009.9 -1 49
2019-09-26 17:00:00 29.4 12 Nordeste 22 Nordeste 0 1010.1 -1.7 55
2019-09-26 16:00:00 29.4 12 Este 20 Este 0 1010.6 -1.8 54
2019-09-26 15:00:00 28.7 10 Este 19 Este 0 1010.9 -1.7 56
2019-09-26 14:00:00 28 8 Nordeste 20 Nordeste 0 1011.8 -1 56
2019-09-26 13:00:00 27.5 8 Este 14 Nordeste 0 1012.4 -0.1 57
2019-09-26 12:00:00 26.2 6 Este 12 Norte 0 1012.6 0.7 61
2019-09-26 11:00:00 24.3 5 Noroeste 10 Noroeste 0 1012.8 1.5 72
2019-09-26 10:00:00 22.9 3 Oeste 11 Noroeste 0 1012.5 1.6 80
2019-09-26 09:00:00 20.5 6 Noroeste 11 Noroeste 0 1011.9 1.2 87
2019-09-26 08:00:00 20.2 6 Noroeste 9 Noroeste 0 1011.3 0.9 88
2019-09-26 07:00:00 20.6 5 Sudoeste 11 Oeste 0 1010.9 0.7 89
2019-09-26 06:00:00 20.6 3 Noroeste 8 Oeste 0 1010.7 0.4 89
2019-09-26 05:00:00 21.1 3 Sur 6 Noroeste 0 1010.4 0.1 90
2019-09-26 04:00:00 21.2 2 Sur 7 Oeste 0 1010.2 -0.3 91
2019-09-26 03:00:00 21.3 0 Calma 4 Sudeste 0 1010.3 -0.1 89
2019-09-26 02:00:00 22.5 0 Calma 6 Nordeste 0 1010.3 0.2 89
2019-09-26 01:00:00 22.1 3 Nordeste 11 Este 0 1010.5 0.9 90
2019-09-26 00:00:00 22.6 8 Nordeste 12 Nordeste 0 1010.4 1.6 89
2019-09-25 23:00:00 23.1 9 Nordeste 22 Nordeste 0 1010.1 2.2 87
2019-09-25 22:00:00 23.6 15 Nordeste 30 Nordeste 0 1009.6 2.8 84
2019-09-25 21:00:00 24.4 17 Nordeste 31 Nordeste 0 1008.8 2.4 79
2019-09-25 20:00:00 27 15 Nordeste 23 Nordeste 0 1007.9 1.6 58
2019-09-25 19:00:00 30.3 11 Sur 26 Sur 0 1006.8 0.3 38
2019-09-25 18:00:00 31.8 12 Sur 25 Sudeste 0 1006.4 -0.7 35
2019-09-25 17:00:00 32.9 10 Sudeste 21 Sur 0 1006.3 -1.4 34
2019-09-25 16:00:00 32.7 5 Sur 13 Sudeste 0 1006.5 -2.1 34
2019-09-25 15:00:00 32.1 7 Sudeste 14 Sudoeste 0 1007.1 -1.9 37
2019-09-25 14:00:00 30.9 5 Sur 17 Norte 0 1007.7 -1.3 42
2019-09-25 13:00:00 29.6 5 Noroeste 18 Oeste 0 1008.6 0 45
2019-09-25 12:00:00 28.2 9 Sudoeste 25 Noroeste 0 1009 0.8 49
2019-09-25 11:00:00 26.9 10 Oeste 18 Oeste 0 1009 1.1 53
2019-09-25 10:00:00 24.7 9 Oeste 14 Oeste 0 1008.6 1.1 52
2019-09-25 09:00:00 21.2 6 Sur 9 Sur 0 1008.2 0.9 64
2019-09-25 08:00:00 19.1 5 Sur 11 Oeste 0 1007.9 0.8 73
2019-09-25 07:00:00 19 3 Oeste 8 Sudoeste 0 1007.5 0 71
2019-09-25 06:00:00 19.8 6 Sur 10 Oeste 0 1007.3 -0.3 78
2019-09-25 05:00:00 20.6 5 Sudoeste 9 Oeste 0 1007.1 -0.6 68
2019-09-25 04:00:00 20.4 4 Oeste 10 Sur 0 1007.5 -0.4 81
2019-09-25 03:00:00 21 5 Sudoeste 7 Sur 0 1007.6 -0.5 81
2019-09-25 02:00:00 21.8 5 Oeste 10 Sudoeste 0 1007.7 -0.3 77
2019-09-25 01:00:00 22.9 4 Sudoeste 9 Oeste 0 1007.9 -0.1 72
2019-09-25 00:00:00 22.9 3 Oeste 10 Sudoeste 0 1008.1 0.5 72
2019-09-24 23:00:00 24.4 6 Sudoeste 10 Oeste 0 1008 0.8 65
2019-09-24 22:00:00 25.5 4 Sudoeste 14 Oeste 0 1008 1 60
2019-09-24 21:00:00 26.5 9 Sudoeste 22 Oeste 0 1007.6 0.6 55
2019-09-24 20:00:00 27.6 14 Sudoeste 23 Sudoeste 0 1007.2 -0.3 51
2019-09-24 19:00:00 30.4 12 Sudoeste 22 Sudoeste 0 1007 -1.2 41
2019-09-24 18:00:00 32.9 13 Sudoeste 21 Sudoeste 0 1007 -1.9 36
2019-09-24 17:00:00 33.9 5 Sudeste 11 Sur 0 1007.5 -2.7 21
2019-09-24 16:00:00 33.3 5 Sudoeste 18 Sudoeste 0 1008.2 -3 24
2019-09-24 15:00:00 32.2 5 Sudeste 14 Sur 0 1008.9 -2.9 30
2019-09-24 14:00:00 30.6 6 Sur 14 Sur 0 1010.2 -1.9 35
2019-09-24 13:00:00 28.6 6 Oeste 14 Oeste 0 1011.2 -0.7 41
2019-09-24 12:00:00 26.1 6 Oeste 15 Noroeste 0 1011.8 0.4 55
2019-09-24 11:00:00 23.9 4 Noroeste 10 Oeste 0 1012.1 0.8 61
2019-09-24 10:00:00 21.7 7 Oeste 12 Oeste 0 1011.9 0.7 69
2019-09-24 09:00:00 19.6 8 Oeste 10 Oeste 0 1011.4 0.3 81
2019-09-24 08:00:00 18.2 4 Sudoeste 9 Oeste 0 1011.3 0.1 85
2019-09-24 07:00:00 18.6 4 Oeste 8 Sudoeste 0 1011.2 -0.2 83
2019-09-24 06:00:00 18.7 6 Oeste 8 Oeste 0 1011.1 -1 85
2019-09-24 05:00:00 19.2 5 Sudoeste 11 Oeste 0 1011.2 -1.2 82
2019-09-24 04:00:00 19.8 6 Oeste 10 Oeste 0 1011.4 -1.1 80
2019-09-24 03:00:00 20.1 4 Sudoeste 9 Oeste 0 1012.1 -0.6 82
2019-09-24 02:00:00 20.4 6 Oeste 9 Oeste 0 1012.4 -0.3 79
2019-09-24 01:00:00 21.2 4 Sudoeste 7 Oeste 0 1012.5 0 78
2019-09-24 00:00:00 21.6 2 Oeste 5 Norte 0 1012.7 0.8 79
2019-09-23 23:00:00 22.4 3 Nordeste 9 Nordeste 0 1012.7 1.6 76
2019-09-23 22:00:00 23 7 Norte 9 Norte 0 1012.5 1.7 72
2019-09-23 21:00:00 24.3 2 Este 10 Sudeste 0 1011.9 1.5 59
2019-09-23 20:00:00 25.9 5 Sur 14 Sur 0 1011.1 0.6 52
2019-09-23 19:00:00 27.6 6 Sudeste 17 Sur 0 1010.8 0.1 45
2019-09-23 18:00:00 29.4 3 Este 9 Este 0 1010.4 -0.6 40
2019-09-23 17:00:00 29.8 4 Sudeste 14 Este 0 1010.5 -1.3 38
2019-09-23 16:00:00 29.9 6 Sudoeste 15 Oeste 0 1010.7 -1.7 37
2019-09-23 15:00:00 29.4 4 Sur 14 Oeste 0 1011 -1.8 39
2019-09-23 14:00:00 28.2 6 Noroeste 22 Norte 0 1011.8 -1.6 38
2019-09-23 13:00:00 27.1 12 Noroeste 25 Oeste 0 1012.4 -0.3 39
2019-09-23 12:00:00 25.5 9 Oeste 21 Oeste 0 1012.8 0.2 45
2019-09-23 11:00:00 24.3 9 Oeste 17 Oeste 0 1013.4 1.7 49
2019-09-23 10:00:00 22.7 11 Oeste 17 Oeste 0 1012.7 1.7 54
2019-09-23 09:00:00 20.7 10 Sudoeste 16 Oeste 0 1012.6 2.4 60
2019-09-23 08:00:00 20.4 8 Sudoeste 17 Sudoeste 0 1011.7 1.9 61
2019-09-23 07:00:00 21 8 Sudoeste 18 Oeste 0 1011 1.4 59
2019-09-23 06:00:00 21.9 10 Oeste 16 Oeste 0 1010.2 0.7 53
2019-09-23 05:00:00 22.5 9 Oeste 23 Noroeste 0 1009.8 0.6 51
2019-09-23 04:00:00 23 9 Oeste 17 Noroeste 0 1009.6 0.7 50
2019-09-23 03:00:00 23.7 10 Oeste 21 Noroeste 0 1009.5 1.2 50
2019-09-23 02:00:00 23.8 7 Oeste 16 Oeste 0 1009.2 1.1 59
2019-09-23 01:00:00 24.8 8 Oeste 23 Noroeste 0 1008.9 1.3 54
2019-09-23 00:00:00 25.7 14 Noroeste 25 Noroeste 0 1008.3 1.7 51
2019-09-22 23:00:00 25.8 7 Norte 12 Norte 0 1008.1 2.8 53
2019-09-22 22:00:00 26.5 7 Nordeste 19 Sudoeste 0 1007.6 2.6 66
2019-09-22 21:00:00 27.5 9 Oeste 21 Oeste 0 1006.6 2 55
2019-09-22 20:00:00 28.3 9 Sur 15 Sur 0 1005.3 0.8 57
2019-09-22 19:00:00 29.9 9 Sur 21 Sur 0 1005 0.4 53
2019-09-22 18:00:00 31.4 8 Sur 19 Sur 0 1004.6 -0.2 50
2019-09-22 17:00:00 31.7 10 Sudeste 17 Sur 0 1004.5 -1 51
2019-09-22 16:00:00 31.9 5 Este 14 Este 0 1004.6 -1.3 43
2019-09-22 15:00:00 31.3 7 Este 15 Sudoeste 0 1004.8 -1.5 46
2019-09-22 14:00:00 30.4 7 Noroeste 19 Norte 0 1005.5 -1 48
2019-09-22 13:00:00 29.3 5 Sudoeste 18 Noroeste 0 1005.9 -0.4 50
2019-09-22 12:00:00 27.7 10 Oeste 18 Oeste 0 1006.3 0.3 59
2019-09-22 11:00:00 25.9 8 Oeste 14 Oeste 0 1006.5 1 72
2019-09-22 10:00:00 23.7 6 Sudoeste 10 Sudoeste 0 1006.3 0.9 84
2019-09-22 09:00:00 22 5 Oeste 10 Oeste 0 1006 0.9 90
2019-09-22 08:00:00 21.6 6 Noroeste 11 Noroeste 0 1005.5 0.8 93
2019-09-22 07:00:00 22 3 Oeste 13 Oeste 0 1005.4 0.4 92
2019-09-22 06:00:00 22 9 Oeste 13 Oeste 0 1005.1 -0.4 93
2019-09-22 05:00:00 22.4 4 Sur 6 Sur 0 1004.7 -0.7 90
2019-09-22 04:00:00 22.9 2 Sur 8 Sur 0 1005 -0.7 87
2019-09-22 03:00:00 23.1 4 Sur 8 Sur 0 1005.5 -0.6 87
2019-09-22 02:00:00 23.2 0 Calma 4 Noroeste 0 1005.4 -0.4 85
2019-09-22 01:00:00 24 3 Noroeste 9 Sudoeste 0 1005.7 0.3 80
2019-09-22 00:00:00 24.3 4 Sudoeste 8 Oeste 0 1006.1 1 77
2019-09-21 23:00:00 24.7 5 Oeste 8 Noroeste 0 1005.8 0.7 74
2019-09-21 22:00:00 24.5 3 Norte 7 Sudeste 0 1005.4 0.6 77
2019-09-21 21:00:00 25.6 3 Sudoeste 20 Oeste 0 1005.1 0.6 73
2019-09-21 20:00:00 26.6 6 Sudoeste 10 Sudoeste 0 1005.1 0.6 66
2019-09-21 19:00:00 27.3 4 Sur 10 Sur 0 1004.8 0.1 63
2019-09-21 18:00:00 28.2 3 Norte 8 Este 0 1004.5 -0.8 59
2019-09-21 17:00:00 28.2 6 Sudoeste 11 Sur 0 1004.5 -1.2 55
2019-09-21 16:00:00 28.5 5 Sudoeste 13 Sudoeste 0 1004.7 -1.6 58
2019-09-21 15:00:00 28.2 7 Sudoeste 12 Sur 0 1005.3 -1.7 56
2019-09-21 14:00:00 28.2 6 Sudoeste 15 Sur 0 1005.7 -1.1 56
2019-09-21 13:00:00 28.1 7 Sudoeste 15 Sur 0 1006.3 -0.3 59
2019-09-21 12:00:00 27.2 4 Sudoeste 14 Sudoeste 0 1007 0.7 66
2019-09-21 11:00:00 25.4 6 Sudoeste 12 Oeste 0 1006.8 0.8 74
2019-09-21 10:00:00 23.4 8 Sudoeste 13 Sudoeste 0 1006.6 0.7 84
2019-09-21 09:00:00 22.3 4 Sur 13 Noroeste 0 1006.3 0.8 89
2019-09-21 08:00:00 22.1 8 Noroeste 13 Noroeste 0 1006 0.2 89
2019-09-21 07:00:00 22.2 7 Noroeste 11 Noroeste 0 1005.9 -0.1 91
2019-09-21 06:00:00 22.4 2 Noroeste 12 Noroeste 0 1005.5 -1 90
2019-09-21 05:00:00 22.7 2 Oeste 8 Norte 0 1005.8 -1.6 91
2019-09-21 04:00:00 22.8 3 Este 8 Norte 0 1006 -2.1 90
2019-09-21 03:00:00 22.9 2 Norte 10 Noroeste 0 1006.5 -1.1 91
2019-09-21 02:00:00 23.3 5 Sur 9 Sur 0 1007.4 0 91
2019-09-21 01:00:00 23.2 2 Noroeste 7 Nordeste 0 1008.1 0.8 91
2019-09-21 00:00:00 22.9 5 Nordeste 14 Este 0 1007.6 -1 92
2019-09-20 23:00:00 23.2 9 Este 23 Este 0 1007.4 -0.5 90
2019-09-20 22:00:00 23.5 12 Este 19 Nordeste 0 1007.3 -0.6 86
2019-09-20 21:00:00 23.8 6 Nordeste 21 Este 0 1008.6 0.7 85
2019-09-20 20:00:00 24.2 12 Este 21 Este 0 1007.9 0.3 81
2019-09-20 19:00:00 24.9 13 Este 24 Nordeste 0 1007.9 -0.2 76
2019-09-20 18:00:00 25.4 12 Este 28 Nordeste 0 1007.9 -0.9 73
2019-09-20 17:00:00 26 18 Este 32 Este 0 1007.6 -1.8 69
2019-09-20 16:00:00 26.2 17 Este 30 Este 0 1008.1 -1.3 71
2019-09-20 15:00:00 26.7 18 Este 33 Nordeste 0 1008.8 -1.1 68
2019-09-20 14:00:00 26.4 14 Este 26 Este 0 1009.4 -0.5 70
2019-09-20 13:00:00 26.1 11 Este 25 Nordeste 0 1009.4 -0.4 70
2019-09-20 12:00:00 25.8 12 Este 22 Sudeste 0 1009.9 0.7 70
2019-09-20 11:00:00 25.1 10 Este 18 Este 0 1009.9 0.8 75
2019-09-20 10:00:00 23.1 2 Sudoeste 11 Nordeste 0 1009.8 0.2 84
2019-09-20 09:00:00 22.7 7 Nordeste 14 Nordeste 0 1009.2 -0.9 83
2019-09-20 08:00:00 22.2 7 Nordeste 10 Nordeste 0 1009.1 -0.9 90
2019-09-20 07:00:00 22.2 6 Noroeste 9 Noroeste 0 1009.6 -0.4 91
2019-09-20 06:00:00 22 5 Noroeste 8 Noroeste 0 1010.1 0.1 91
2019-09-20 05:00:00 22.3 2 Sudoeste 5 Oeste 0 1010 -0.1 90
2019-09-20 04:00:00 22.4 2 Oeste 7 Oeste 0 1010 0 90
2019-09-20 03:00:00 22.6 2 Noroeste 6 Nordeste 0 1010 -0.3 89
2019-09-20 02:00:00 22.6 0 Calma 6 Norte 0 1010.1 -0.2 90
2019-09-20 01:00:00 22.5 4 Norte 6 Norte 0 1010 0 91
2019-09-20 00:00:00 22.1 4 Nordeste 8 Nordeste 0 1010.3 1.2 91